sensor_id;sensor_type;location;lat;lon;timestamp;P1;durP1;ratioP1;P2;durP2;ratioP2
7171;SDS011;3627;46.544;14.944;2023-06-22T00:02:24;14.25;;;8.73;;
7171;SDS011;3627;46.544;14.944;2023-06-22T00:04:51;18.75;;;9.00;;
7171;SDS011;3627;46.544;14.944;2023-06-22T00:07:17;17.63;;;9.20;;
7171;SDS011;3627;46.544;14.944;2023-06-22T00:09:43;14.50;;;8.88;;
7171;SDS011;3627;46.544;14.944;2023-06-22T00:12:10;15.95;;;9.63;;
7171;SDS011;3627;46.544;14.944;2023-06-22T00:14:36;16.73;;;9.02;;
7171;SDS011;3627;46.544;14.944;2023-06-22T00:17:03;13.55;;;9.15;;
7171;SDS011;3627;46.544;14.944;2023-06-22T00:19:30;20.33;;;9.35;;
7171;SDS011;3627;46.544;14.944;2023-06-22T00:21:57;15.15;;;8.65;;
7171;SDS011;3627;46.544;14.944;2023-06-22T00:24:25;17.35;;;9.10;;
7171;SDS011;3627;46.544;14.944;2023-06-22T00:26:51;14.10;;;8.30;;
7171;SDS011;3627;46.544;14.944;2023-06-22T00:29:17;15.10;;;8.50;;
7171;SDS011;3627;46.544;14.944;2023-06-22T00:31:44;15.73;;;9.70;;
7171;SDS011;3627;46.544;14.944;2023-06-22T00:34:10;17.75;;;9.23;;
7171;SDS011;3627;46.544;14.944;2023-06-22T00:36:38;16.83;;;9.82;;
7171;SDS011;3627;46.544;14.944;2023-06-22T00:39:05;14.88;;;9.10;;
7171;SDS011;3627;46.544;14.944;2023-06-22T00:41:32;15.18;;;8.55;;
7171;SDS011;3627;46.544;14.944;2023-06-22T00:43:59;16.80;;;8.77;;
7171;SDS011;3627;46.544;14.944;2023-06-22T00:46:25;16.83;;;9.95;;
7171;SDS011;3627;46.544;14.944;2023-06-22T00:48:52;18.40;;;9.25;;
7171;SDS011;3627;46.544;14.944;2023-06-22T00:51:22;14.93;;;9.63;;
7171;SDS011;3627;46.544;14.944;2023-06-22T00:53:50;15.07;;;8.90;;
7171;SDS011;3627;46.544;14.944;2023-06-22T00:56:18;16.23;;;9.63;;
7171;SDS011;3627;46.544;14.944;2023-06-22T00:58:49;13.30;;;8.85;;
7171;SDS011;3627;46.544;14.944;2023-06-22T01:01:17;19.00;;;9.85;;
7171;SDS011;3627;46.544;14.944;2023-06-22T01:03:48;16.15;;;10.15;;
7171;SDS011;3627;46.544;14.944;2023-06-22T01:06:16;17.48;;;9.95;;
7171;SDS011;3627;46.544;14.944;2023-06-22T01:08:46;15.48;;;9.95;;
7171;SDS011;3627;46.544;14.944;2023-06-22T01:11:16;17.88;;;9.90;;
7171;SDS011;3627;46.544;14.944;2023-06-22T01:13:45;23.98;;;10.20;;
7171;SDS011;3627;46.544;14.944;2023-06-22T01:16:15;17.45;;;9.88;;
7171;SDS011;3627;46.544;14.944;2023-06-22T01:18:43;23.23;;;9.20;;
7171;SDS011;3627;46.544;14.944;2023-06-22T01:21:11;16.65;;;9.73;;
7171;SDS011;3627;46.544;14.944;2023-06-22T01:23:42;20.20;;;9.40;;
7171;SDS011;3627;46.544;14.944;2023-06-22T01:26:17;14.43;;;8.38;;
7171;SDS011;3627;46.544;14.944;2023-06-22T01:28:46;13.52;;;9.88;;
7171;SDS011;3627;46.544;14.944;2023-06-22T01:31:13;13.63;;;9.38;;
7171;SDS011;3627;46.544;14.944;2023-06-22T01:33:42;13.13;;;9.00;;
7171;SDS011;3627;46.544;14.944;2023-06-22T01:36:09;17.45;;;8.90;;
7171;SDS011;3627;46.544;14.944;2023-06-22T01:38:35;14.50;;;8.73;;
7171;SDS011;3627;46.544;14.944;2023-06-22T01:41:03;14.93;;;8.52;;
7171;SDS011;3627;46.544;14.944;2023-06-22T01:43:31;19.55;;;9.02;;
7171;SDS011;3627;46.544;14.944;2023-06-22T01:46:00;16.23;;;9.32;;
7171;SDS011;3627;46.544;14.944;2023-06-22T01:48:27;23.60;;;10.07;;
7171;SDS011;3627;46.544;14.944;2023-06-22T01:50:54;17.60;;;8.88;;
7171;SDS011;3627;46.544;14.944;2023-06-22T01:53:20;14.00;;;9.02;;
7171;SDS011;3627;46.544;14.944;2023-06-22T01:55:46;16.65;;;9.68;;
7171;SDS011;3627;46.544;14.944;2023-06-22T01:58:13;18.63;;;9.45;;
7171;SDS011;3627;46.544;14.944;2023-06-22T02:00:40;19.98;;;10.48;;
7171;SDS011;3627;46.544;14.944;2023-06-22T02:03:13;17.00;;;10.07;;
7171;SDS011;3627;46.544;14.944;2023-06-22T02:05:43;16.85;;;10.38;;
7171;SDS011;3627;46.544;14.944;2023-06-22T02:08:13;18.05;;;10.40;;
7171;SDS011;3627;46.544;14.944;2023-06-22T02:10:41;16.33;;;10.00;;
7171;SDS011;3627;46.544;14.944;2023-06-22T02:13:08;18.05;;;10.38;;
7171;SDS011;3627;46.544;14.944;2023-06-22T02:15:36;17.17;;;10.63;;
7171;SDS011;3627;46.544;14.944;2023-06-22T02:18:03;19.15;;;10.38;;
7171;SDS011;3627;46.544;14.944;2023-06-22T02:20:31;18.52;;;10.55;;
7171;SDS011;3627;46.544;14.944;2023-06-22T02:22:57;20.38;;;11.18;;
7171;SDS011;3627;46.544;14.944;2023-06-22T02:25:24;18.70;;;11.23;;
7171;SDS011;3627;46.544;14.944;2023-06-22T02:27:50;20.63;;;10.85;;
7171;SDS011;3627;46.544;14.944;2023-06-22T02:30:16;20.65;;;10.75;;
7171;SDS011;3627;46.544;14.944;2023-06-22T02:32:43;17.60;;;11.63;;
7171;SDS011;3627;46.544;14.944;2023-06-22T02:35:09;20.33;;;10.93;;
7171;SDS011;3627;46.544;14.944;2023-06-22T02:37:37;20.33;;;10.90;;
7171;SDS011;3627;46.544;14.944;2023-06-22T02:40:06;15.75;;;10.90;;
7171;SDS011;3627;46.544;14.944;2023-06-22T02:42:34;15.73;;;10.70;;
7171;SDS011;3627;46.544;14.944;2023-06-22T02:45:00;15.60;;;10.15;;
7171;SDS011;3627;46.544;14.944;2023-06-22T02:47:26;17.67;;;10.25;;
7171;SDS011;3627;46.544;14.944;2023-06-22T02:49:53;13.45;;;9.77;;
7171;SDS011;3627;46.544;14.944;2023-06-22T02:52:19;19.60;;;10.07;;
7171;SDS011;3627;46.544;14.944;2023-06-22T02:54:47;18.27;;;10.13;;
7171;SDS011;3627;46.544;14.944;2023-06-22T02:57:13;17.05;;;10.10;;
7171;SDS011;3627;46.544;14.944;2023-06-22T02:59:40;16.83;;;10.57;;
7171;SDS011;3627;46.544;14.944;2023-06-22T03:02:08;13.90;;;9.02;;
7171;SDS011;3627;46.544;14.944;2023-06-22T03:04:35;17.92;;;9.77;;
7171;SDS011;3627;46.544;14.944;2023-06-22T03:07:02;18.38;;;10.77;;
7171;SDS011;3627;46.544;14.944;2023-06-22T03:09:28;16.15;;;9.48;;
7171;SDS011;3627;46.544;14.944;2023-06-22T03:11:56;18.42;;;10.35;;
7171;SDS011;3627;46.544;14.944;2023-06-22T03:14:22;17.38;;;10.23;;
7171;SDS011;3627;46.544;14.944;2023-06-22T03:16:49;20.58;;;10.07;;
7171;SDS011;3627;46.544;14.944;2023-06-22T03:19:15;17.90;;;10.30;;
7171;SDS011;3627;46.544;14.944;2023-06-22T03:21:41;15.57;;;10.05;;
7171;SDS011;3627;46.544;14.944;2023-06-22T03:24:08;15.15;;;9.75;;
7171;SDS011;3627;46.544;14.944;2023-06-22T03:26:34;17.35;;;10.55;;
7171;SDS011;3627;46.544;14.944;2023-06-22T03:29:02;22.70;;;11.68;;
7171;SDS011;3627;46.544;14.944;2023-06-22T03:31:28;21.95;;;11.10;;
7171;SDS011;3627;46.544;14.944;2023-06-22T03:33:55;18.27;;;9.38;;
7171;SDS011;3627;46.544;14.944;2023-06-22T03:36:21;17.90;;;10.23;;
7171;SDS011;3627;46.544;14.944;2023-06-22T03:38:48;17.63;;;10.75;;
7171;SDS011;3627;46.544;14.944;2023-06-22T03:41:15;15.88;;;10.23;;
7171;SDS011;3627;46.544;14.944;2023-06-22T03:50:08;14.57;;;9.65;;
7171;SDS011;3627;46.544;14.944;2023-06-22T03:52:34;17.30;;;9.95;;
7171;SDS011;3627;46.544;14.944;2023-06-22T03:55:01;15.80;;;9.75;;
7171;SDS011;3627;46.544;14.944;2023-06-22T03:57:27;19.52;;;9.98;;
7171;SDS011;3627;46.544;14.944;2023-06-22T03:59:54;13.85;;;9.05;;
7171;SDS011;3627;46.544;14.944;2023-06-22T04:02:20;16.30;;;10.88;;
7171;SDS011;3627;46.544;14.944;2023-06-22T04:04:46;17.65;;;9.27;;
7171;SDS011;3627;46.544;14.944;2023-06-22T04:07:14;16.83;;;9.65;;
7171;SDS011;3627;46.544;14.944;2023-06-22T04:09:40;14.68;;;9.88;;
7171;SDS011;3627;46.544;14.944;2023-06-22T04:12:07;17.70;;;9.10;;
7171;SDS011;3627;46.544;14.944;2023-06-22T04:14:33;19.35;;;9.65;;
7171;SDS011;3627;46.544;14.944;2023-06-22T04:17:00;20.15;;;9.65;;
7171;SDS011;3627;46.544;14.944;2023-06-22T04:19:26;15.50;;;9.05;;
7171;SDS011;3627;46.544;14.944;2023-06-22T04:21:52;15.57;;;9.35;;
7171;SDS011;3627;46.544;14.944;2023-06-22T04:24:20;16.10;;;9.10;;
7171;SDS011;3627;46.544;14.944;2023-06-22T04:26:47;16.38;;;9.25;;
7171;SDS011;3627;46.544;14.944;2023-06-22T04:29:13;15.38;;;8.77;;
7171;SDS011;3627;46.544;14.944;2023-06-22T04:31:40;13.77;;;8.90;;
7171;SDS011;3627;46.544;14.944;2023-06-22T04:34:06;13.90;;;8.45;;
7171;SDS011;3627;46.544;14.944;2023-06-22T04:36:36;13.40;;;8.63;;
7171;SDS011;3627;46.544;14.944;2023-06-22T04:39:04;15.20;;;8.35;;
7171;SDS011;3627;46.544;14.944;2023-06-22T04:41:32;14.10;;;9.07;;
7171;SDS011;3627;46.544;14.944;2023-06-22T04:44:07;14.57;;;8.57;;
7171;SDS011;3627;46.544;14.944;2023-06-22T04:46:34;16.98;;;8.70;;
7171;SDS011;3627;46.544;14.944;2023-06-22T04:49:03;15.52;;;9.18;;
7171;SDS011;3627;46.544;14.944;2023-06-22T04:51:31;17.42;;;8.98;;
7171;SDS011;3627;46.544;14.944;2023-06-22T04:53:57;17.35;;;8.20;;
7171;SDS011;3627;46.544;14.944;2023-06-22T04:56:25;13.80;;;8.23;;
7171;SDS011;3627;46.544;14.944;2023-06-22T04:58:54;14.57;;;9.10;;
7171;SDS011;3627;46.544;14.944;2023-06-22T05:01:22;13.25;;;8.05;;
7171;SDS011;3627;46.544;14.944;2023-06-22T05:03:48;17.85;;;9.18;;
7171;SDS011;3627;46.544;14.944;2023-06-22T05:06:15;11.57;;;8.40;;
7171;SDS011;3627;46.544;14.944;2023-06-22T05:08:41;15.05;;;8.13;;
7171;SDS011;3627;46.544;14.944;2023-06-22T05:11:08;14.32;;;8.43;;
7171;SDS011;3627;46.544;14.944;2023-06-22T05:13:34;15.25;;;8.85;;
7171;SDS011;3627;46.544;14.944;2023-06-22T05:16:02;16.48;;;8.32;;
7171;SDS011;3627;46.544;14.944;2023-06-22T05:18:28;13.13;;;8.20;;
7171;SDS011;3627;46.544;14.944;2023-06-22T05:20:55;13.63;;;8.15;;
7171;SDS011;3627;46.544;14.944;2023-06-22T05:23:21;11.63;;;7.85;;
7171;SDS011;3627;46.544;14.944;2023-06-22T05:25:48;14.45;;;8.90;;
7171;SDS011;3627;46.544;14.944;2023-06-22T05:28:14;13.27;;;8.25;;
7171;SDS011;3627;46.544;14.944;2023-06-22T05:30:40;14.48;;;8.75;;
7171;SDS011;3627;46.544;14.944;2023-06-22T05:33:08;16.42;;;9.52;;
7171;SDS011;3627;46.544;14.944;2023-06-22T05:35:35;12.82;;;8.63;;
7171;SDS011;3627;46.544;14.944;2023-06-22T05:38:01;14.18;;;9.02;;
7171;SDS011;3627;46.544;14.944;2023-06-22T05:40:27;13.32;;;8.52;;
7171;SDS011;3627;46.544;14.944;2023-06-22T05:42:54;18.08;;;10.38;;
7171;SDS011;3627;46.544;14.944;2023-06-22T05:45:20;16.90;;;8.70;;
7171;SDS011;3627;46.544;14.944;2023-06-22T05:47:47;20.42;;;9.57;;
7171;SDS011;3627;46.544;14.944;2023-06-22T05:50:14;17.65;;;9.38;;
7171;SDS011;3627;46.544;14.944;2023-06-22T05:52:41;15.45;;;8.55;;
7171;SDS011;3627;46.544;14.944;2023-06-22T05:55:08;14.88;;;9.32;;
7171;SDS011;3627;46.544;14.944;2023-06-22T05:57:35;17.00;;;9.23;;
7171;SDS011;3627;46.544;14.944;2023-06-22T06:00:01;15.23;;;8.65;;
7171;SDS011;3627;46.544;14.944;2023-06-22T06:02:30;17.48;;;9.65;;
7171;SDS011;3627;46.544;14.944;2023-06-22T06:04:58;19.33;;;9.32;;
7171;SDS011;3627;46.544;14.944;2023-06-22T06:07:29;14.38;;;9.18;;
7171;SDS011;3627;46.544;14.944;2023-06-22T06:09:55;12.10;;;8.52;;
7171;SDS011;3627;46.544;14.944;2023-06-22T06:12:21;14.85;;;8.85;;
7171;SDS011;3627;46.544;14.944;2023-06-22T06:14:48;12.65;;;8.68;;
7171;SDS011;3627;46.544;14.944;2023-06-22T06:17:16;13.48;;;8.40;;
7171;SDS011;3627;46.544;14.944;2023-06-22T06:19:42;13.15;;;8.55;;
7171;SDS011;3627;46.544;14.944;2023-06-22T06:22:09;13.85;;;9.02;;
7171;SDS011;3627;46.544;14.944;2023-06-22T06:24:36;14.77;;;8.48;;
7171;SDS011;3627;46.544;14.944;2023-06-22T06:27:03;15.90;;;9.25;;
7171;SDS011;3627;46.544;14.944;2023-06-22T06:29:30;14.35;;;9.40;;
7171;SDS011;3627;46.544;14.944;2023-06-22T06:31:56;17.98;;;9.65;;
7171;SDS011;3627;46.544;14.944;2023-06-22T06:34:22;14.52;;;8.73;;
7171;SDS011;3627;46.544;14.944;2023-06-22T06:36:49;13.32;;;9.40;;
7171;SDS011;3627;46.544;14.944;2023-06-22T06:39:15;16.08;;;9.23;;
7171;SDS011;3627;46.544;14.944;2023-06-22T06:41:43;16.50;;;9.82;;
7171;SDS011;3627;46.544;14.944;2023-06-22T06:44:09;16.45;;;8.77;;
7171;SDS011;3627;46.544;14.944;2023-06-22T06:46:36;14.85;;;9.13;;
7171;SDS011;3627;46.544;14.944;2023-06-22T06:49:02;15.77;;;10.43;;
7171;SDS011;3627;46.544;14.944;2023-06-22T06:51:29;16.58;;;9.65;;
7171;SDS011;3627;46.544;14.944;2023-06-22T06:53:55;16.98;;;9.82;;
7171;SDS011;3627;46.544;14.944;2023-06-22T06:56:22;17.35;;;10.02;;
7171;SDS011;3627;46.544;14.944;2023-06-22T06:58:50;16.92;;;9.88;;
7171;SDS011;3627;46.544;14.944;2023-06-22T07:01:17;18.80;;;9.60;;
7171;SDS011;3627;46.544;14.944;2023-06-22T07:03:44;16.75;;;9.88;;
7171;SDS011;3627;46.544;14.944;2023-06-22T07:06:11;18.35;;;10.10;;
7171;SDS011;3627;46.544;14.944;2023-06-22T07:08:37;19.45;;;9.93;;
7171;SDS011;3627;46.544;14.944;2023-06-22T07:11:04;12.98;;;9.50;;
7171;SDS011;3627;46.544;14.944;2023-06-22T07:13:31;16.58;;;10.38;;
7171;SDS011;3627;46.544;14.944;2023-06-22T07:16:00;15.07;;;9.77;;
7171;SDS011;3627;46.544;14.944;2023-06-22T07:18:26;19.30;;;9.88;;
7171;SDS011;3627;46.544;14.944;2023-06-22T07:20:52;12.07;;;9.25;;
7171;SDS011;3627;46.544;14.944;2023-06-22T07:23:19;15.80;;;8.98;;
7171;SDS011;3627;46.544;14.944;2023-06-22T07:25:45;17.33;;;9.45;;
7171;SDS011;3627;46.544;14.944;2023-06-22T07:28:11;12.65;;;8.82;;
7171;SDS011;3627;46.544;14.944;2023-06-22T07:30:38;14.13;;;8.77;;
7171;SDS011;3627;46.544;14.944;2023-06-22T07:33:07;15.57;;;9.40;;
7171;SDS011;3627;46.544;14.944;2023-06-22T07:35:33;18.92;;;10.20;;
7171;SDS011;3627;46.544;14.944;2023-06-22T07:38:00;17.10;;;8.75;;
7171;SDS011;3627;46.544;14.944;2023-06-22T07:40:27;14.60;;;9.00;;
7171;SDS011;3627;46.544;14.944;2023-06-22T07:42:53;13.50;;;8.88;;
7171;SDS011;3627;46.544;14.944;2023-06-22T07:45:19;16.42;;;8.98;;
7171;SDS011;3627;46.544;14.944;2023-06-22T07:47:46;12.10;;;7.97;;
7171;SDS011;3627;46.544;14.944;2023-06-22T07:50:13;14.15;;;8.63;;
7171;SDS011;3627;46.544;14.944;2023-06-22T07:52:40;14.05;;;8.30;;
7171;SDS011;3627;46.544;14.944;2023-06-22T07:55:06;12.73;;;8.55;;
7171;SDS011;3627;46.544;14.944;2023-06-22T07:57:33;17.40;;;8.38;;
7171;SDS011;3627;46.544;14.944;2023-06-22T07:59:59;11.13;;;8.20;;
7171;SDS011;3627;46.544;14.944;2023-06-22T08:02:26;15.38;;;8.27;;
7171;SDS011;3627;46.544;14.944;2023-06-22T08:04:52;16.73;;;8.70;;
7171;SDS011;3627;46.544;14.944;2023-06-22T08:07:20;13.57;;;8.30;;
7171;SDS011;3627;46.544;14.944;2023-06-22T08:09:47;18.95;;;9.45;;
7171;SDS011;3627;46.544;14.944;2023-06-22T08:12:14;12.95;;;8.65;;
7171;SDS011;3627;46.544;14.944;2023-06-22T08:14:41;16.48;;;8.98;;
7171;SDS011;3627;46.544;14.944;2023-06-22T08:17:08;18.33;;;8.68;;
7171;SDS011;3627;46.544;14.944;2023-06-22T08:19:34;13.40;;;8.80;;
7171;SDS011;3627;46.544;14.944;2023-06-22T08:22:01;12.07;;;8.35;;
7171;SDS011;3627;46.544;14.944;2023-06-22T08:24:28;16.02;;;9.23;;
7171;SDS011;3627;46.544;14.944;2023-06-22T08:26:55;13.43;;;8.10;;
7171;SDS011;3627;46.544;14.944;2023-06-22T08:29:22;15.15;;;8.90;;
7171;SDS011;3627;46.544;14.944;2023-06-22T08:31:48;12.60;;;8.38;;
7171;SDS011;3627;46.544;14.944;2023-06-22T08:34:15;11.50;;;8.32;;
7171;SDS011;3627;46.544;14.944;2023-06-22T08:36:43;14.88;;;8.93;;
7171;SDS011;3627;46.544;14.944;2023-06-22T08:39:16;12.20;;;8.55;;
7171;SDS011;3627;46.544;14.944;2023-06-22T08:41:44;13.35;;;8.00;;
7171;SDS011;3627;46.544;14.944;2023-06-22T08:44:11;13.73;;;8.65;;
7171;SDS011;3627;46.544;14.944;2023-06-22T08:46:37;14.98;;;8.38;;
7171;SDS011;3627;46.544;14.944;2023-06-22T08:49:05;16.58;;;8.43;;
7171;SDS011;3627;46.544;14.944;2023-06-22T08:51:32;12.82;;;8.43;;
7171;SDS011;3627;46.544;14.944;2023-06-22T08:53:59;14.05;;;8.23;;
7171;SDS011;3627;46.544;14.944;2023-06-22T08:56:25;13.88;;;7.88;;
7171;SDS011;3627;46.544;14.944;2023-06-22T08:58:53;13.63;;;7.88;;
7171;SDS011;3627;46.544;14.944;2023-06-22T09:01:20;12.93;;;8.20;;
7171;SDS011;3627;46.544;14.944;2023-06-22T09:03:46;14.88;;;8.55;;
7171;SDS011;3627;46.544;14.944;2023-06-22T09:06:19;16.40;;;8.32;;
7171;SDS011;3627;46.544;14.944;2023-06-22T09:08:45;11.57;;;7.72;;
7171;SDS011;3627;46.544;14.944;2023-06-22T09:11:12;14.88;;;8.70;;
7171;SDS011;3627;46.544;14.944;2023-06-22T09:13:38;12.15;;;7.93;;
7171;SDS011;3627;46.544;14.944;2023-06-22T09:16:06;13.93;;;8.20;;
7171;SDS011;3627;46.544;14.944;2023-06-22T09:18:33;12.90;;;8.65;;
7171;SDS011;3627;46.544;14.944;2023-06-22T09:21:01;11.60;;;8.45;;
7171;SDS011;3627;46.544;14.944;2023-06-22T09:23:27;16.70;;;8.85;;
7171;SDS011;3627;46.544;14.944;2023-06-22T09:25:54;17.67;;;8.93;;
7171;SDS011;3627;46.544;14.944;2023-06-22T09:28:20;15.75;;;8.93;;
7171;SDS011;3627;46.544;14.944;2023-06-22T09:30:47;15.90;;;9.75;;
7171;SDS011;3627;46.544;14.944;2023-06-22T09:33:15;15.75;;;9.68;;
7171;SDS011;3627;46.544;14.944;2023-06-22T09:35:41;13.02;;;9.80;;
7171;SDS011;3627;46.544;14.944;2023-06-22T09:38:08;16.85;;;9.90;;
7171;SDS011;3627;46.544;14.944;2023-06-22T09:40:34;17.58;;;9.73;;
7171;SDS011;3627;46.544;14.944;2023-06-22T09:43:05;15.02;;;10.02;;
7171;SDS011;3627;46.544;14.944;2023-06-22T09:45:31;16.17;;;9.98;;
7171;SDS011;3627;46.544;14.944;2023-06-22T09:47:58;15.73;;;10.63;;
7171;SDS011;3627;46.544;14.944;2023-06-22T09:50:25;15.73;;;10.00;;
7171;SDS011;3627;46.544;14.944;2023-06-22T09:52:52;16.98;;;9.60;;
7171;SDS011;3627;46.544;14.944;2023-06-22T09:55:20;17.25;;;9.93;;
7171;SDS011;3627;46.544;14.944;2023-06-22T09:57:46;19.42;;;10.18;;
7171;SDS011;3627;46.544;14.944;2023-06-22T10:00:13;15.32;;;9.02;;
7171;SDS011;3627;46.544;14.944;2023-06-22T10:02:40;14.00;;;9.50;;
7171;SDS011;3627;46.544;14.944;2023-06-22T10:05:07;12.98;;;10.13;;
7171;SDS011;3627;46.544;14.944;2023-06-22T10:07:35;18.05;;;10.05;;
7171;SDS011;3627;46.544;14.944;2023-06-22T10:10:05;16.90;;;9.18;;
7171;SDS011;3627;46.544;14.944;2023-06-22T10:12:31;15.80;;;9.38;;
7171;SDS011;3627;46.544;14.944;2023-06-22T10:14:58;13.90;;;8.80;;
7171;SDS011;3627;46.544;14.944;2023-06-22T10:17:24;15.20;;;9.82;;
7171;SDS011;3627;46.544;14.944;2023-06-22T10:19:51;19.40;;;10.25;;
7171;SDS011;3627;46.544;14.944;2023-06-22T10:22:17;20.70;;;13.13;;
7171;SDS011;3627;46.544;14.944;2023-06-22T10:24:45;19.85;;;11.95;;
7171;SDS011;3627;46.544;14.944;2023-06-22T10:27:11;18.35;;;11.95;;
7171;SDS011;3627;46.544;14.944;2023-06-22T10:29:38;18.38;;;10.93;;
7171;SDS011;3627;46.544;14.944;2023-06-22T10:32:05;18.88;;;12.52;;
7171;SDS011;3627;46.544;14.944;2023-06-22T10:34:32;16.83;;;10.32;;
7171;SDS011;3627;46.544;14.944;2023-06-22T10:36:58;17.85;;;10.82;;
7171;SDS011;3627;46.544;14.944;2023-06-22T10:39:25;14.93;;;10.80;;
7171;SDS011;3627;46.544;14.944;2023-06-22T10:41:53;14.77;;;10.30;;
7171;SDS011;3627;46.544;14.944;2023-06-22T10:44:20;15.90;;;10.38;;
7171;SDS011;3627;46.544;14.944;2023-06-22T10:46:47;14.50;;;10.23;;
7171;SDS011;3627;46.544;14.944;2023-06-22T10:49:13;18.50;;;11.88;;
7171;SDS011;3627;46.544;14.944;2023-06-22T10:51:40;16.20;;;10.73;;
7171;SDS011;3627;46.544;14.944;2023-06-22T10:54:06;20.60;;;10.95;;
7171;SDS011;3627;46.544;14.944;2023-06-22T10:56:33;18.63;;;11.15;;
7171;SDS011;3627;46.544;14.944;2023-06-22T10:59:01;21.02;;;12.25;;
7171;SDS011;3627;46.544;14.944;2023-06-22T11:01:27;22.08;;;15.48;;
7171;SDS011;3627;46.544;14.944;2023-06-22T11:03:56;23.65;;;14.38;;
7171;SDS011;3627;46.544;14.944;2023-06-22T11:06:22;17.40;;;11.23;;
7171;SDS011;3627;46.544;14.944;2023-06-22T11:08:49;19.20;;;11.68;;
7171;SDS011;3627;46.544;14.944;2023-06-22T11:11:15;19.10;;;11.55;;
7171;SDS011;3627;46.544;14.944;2023-06-22T11:13:43;15.75;;;11.32;;
7171;SDS011;3627;46.544;14.944;2023-06-22T11:16:11;18.15;;;11.35;;
7171;SDS011;3627;46.544;14.944;2023-06-22T11:18:37;16.30;;;11.07;;
7171;SDS011;3627;46.544;14.944;2023-06-22T11:21:04;15.43;;;10.90;;
7171;SDS011;3627;46.544;14.944;2023-06-22T11:23:30;19.15;;;10.80;;
7171;SDS011;3627;46.544;14.944;2023-06-22T11:25:57;16.73;;;11.90;;
7171;SDS011;3627;46.544;14.944;2023-06-22T11:28:23;18.98;;;10.10;;
7171;SDS011;3627;46.544;14.944;2023-06-22T11:30:51;19.48;;;10.95;;
7171;SDS011;3627;46.544;14.944;2023-06-22T11:33:19;15.02;;;10.23;;
7171;SDS011;3627;46.544;14.944;2023-06-22T11:35:46;18.05;;;10.88;;
7171;SDS011;3627;46.544;14.944;2023-06-22T11:38:12;12.52;;;10.32;;
7171;SDS011;3627;46.544;14.944;2023-06-22T11:40:39;14.35;;;9.75;;
7171;SDS011;3627;46.544;14.944;2023-06-22T11:43:05;15.40;;;10.27;;
7171;SDS011;3627;46.544;14.944;2023-06-22T11:45:31;14.15;;;10.80;;
7171;SDS011;3627;46.544;14.944;2023-06-22T11:47:58;16.80;;;10.50;;
7171;SDS011;3627;46.544;14.944;2023-06-22T11:50:26;19.10;;;10.48;;
7171;SDS011;3627;46.544;14.944;2023-06-22T11:52:53;17.52;;;10.30;;
7171;SDS011;3627;46.544;14.944;2023-06-22T11:55:20;13.27;;;10.50;;
7171;SDS011;3627;46.544;14.944;2023-06-22T11:57:54;22.70;;;11.10;;
7171;SDS011;3627;46.544;14.944;2023-06-22T12:00:20;16.27;;;10.30;;
7171;SDS011;3627;46.544;14.944;2023-06-22T12:02:49;16.95;;;10.45;;
7171;SDS011;3627;46.544;14.944;2023-06-22T12:05:16;16.33;;;10.38;;
7171;SDS011;3627;46.544;14.944;2023-06-22T12:07:44;18.02;;;10.93;;
7171;SDS011;3627;46.544;14.944;2023-06-22T12:10:10;13.68;;;10.52;;
7171;SDS011;3627;46.544;14.944;2023-06-22T12:12:37;18.17;;;10.77;;
7171;SDS011;3627;46.544;14.944;2023-06-22T12:15:03;14.30;;;9.30;;
7171;SDS011;3627;46.544;14.944;2023-06-22T12:17:30;15.82;;;10.95;;
7171;SDS011;3627;46.544;14.944;2023-06-22T12:19:58;16.02;;;9.48;;
7171;SDS011;3627;46.544;14.944;2023-06-22T12:22:24;16.27;;;9.65;;
7171;SDS011;3627;46.544;14.944;2023-06-22T12:24:52;16.02;;;9.65;;
7171;SDS011;3627;46.544;14.944;2023-06-22T12:27:18;19.80;;;9.88;;
7171;SDS011;3627;46.544;14.944;2023-06-22T12:29:45;16.60;;;10.43;;
7171;SDS011;3627;46.544;14.944;2023-06-22T12:32:12;15.98;;;9.93;;
7171;SDS011;3627;46.544;14.944;2023-06-22T12:34:39;17.13;;;10.43;;
7171;SDS011;3627;46.544;14.944;2023-06-22T12:37:05;18.85;;;10.55;;
7171;SDS011;3627;46.544;14.944;2023-06-22T12:39:32;18.88;;;10.00;;
7171;SDS011;3627;46.544;14.944;2023-06-22T12:41:59;14.85;;;10.25;;
7171;SDS011;3627;46.544;14.944;2023-06-22T12:44:26;13.35;;;9.98;;
7171;SDS011;3627;46.544;14.944;2023-06-22T12:46:52;15.88;;;10.27;;
7171;SDS011;3627;46.544;14.944;2023-06-22T12:49:19;15.30;;;10.48;;
7171;SDS011;3627;46.544;14.944;2023-06-22T12:51:45;14.75;;;11.05;;
7171;SDS011;3627;46.544;14.944;2023-06-22T12:54:11;15.02;;;10.60;;
7171;SDS011;3627;46.544;14.944;2023-06-22T12:56:38;15.00;;;11.57;;
7171;SDS011;3627;46.544;14.944;2023-06-22T12:59:06;15.60;;;11.02;;
7171;SDS011;3627;46.544;14.944;2023-06-22T13:01:32;16.35;;;10.73;;
7171;SDS011;3627;46.544;14.944;2023-06-22T13:03:59;18.48;;;12.30;;
7171;SDS011;3627;46.544;14.944;2023-06-22T13:06:25;18.38;;;11.98;;
7171;SDS011;3627;46.544;14.944;2023-06-22T13:08:51;15.95;;;11.43;;
7171;SDS011;3627;46.544;14.944;2023-06-22T13:11:18;19.45;;;13.00;;
7171;SDS011;3627;46.544;14.944;2023-06-22T13:13:44;19.30;;;11.63;;
7171;SDS011;3627;46.544;14.944;2023-06-22T13:16:12;17.27;;;11.15;;
7171;SDS011;3627;46.544;14.944;2023-06-22T13:18:39;20.20;;;13.40;;
7171;SDS011;3627;46.544;14.944;2023-06-22T13:21:05;19.10;;;11.63;;
7171;SDS011;3627;46.544;14.944;2023-06-22T13:23:32;22.52;;;10.25;;
7171;SDS011;3627;46.544;14.944;2023-06-22T13:25:59;19.75;;;12.68;;
7171;SDS011;3627;46.544;14.944;2023-06-22T13:28:25;20.95;;;11.43;;
7171;SDS011;3627;46.544;14.944;2023-06-22T13:30:51;18.02;;;12.52;;
7171;SDS011;3627;46.544;14.944;2023-06-22T13:33:19;14.10;;;11.40;;
7171;SDS011;3627;46.544;14.944;2023-06-22T13:35:46;18.55;;;12.10;;
7171;SDS011;3627;46.544;14.944;2023-06-22T13:38:12;19.02;;;11.88;;
7171;SDS011;3627;46.544;14.944;2023-06-22T13:40:39;17.30;;;10.73;;
7171;SDS011;3627;46.544;14.944;2023-06-22T13:43:05;16.90;;;11.00;;
7171;SDS011;3627;46.544;14.944;2023-06-22T13:45:32;16.38;;;10.85;;
7171;SDS011;3627;46.544;14.944;2023-06-22T13:47:59;19.00;;;12.32;;
7171;SDS011;3627;46.544;14.944;2023-06-22T13:50:26;18.77;;;10.55;;
7171;SDS011;3627;46.544;14.944;2023-06-22T13:52:54;17.92;;;11.10;;
7171;SDS011;3627;46.544;14.944;2023-06-22T13:55:21;13.93;;;11.05;;
7171;SDS011;3627;46.544;14.944;2023-06-22T13:57:48;15.70;;;11.15;;
7171;SDS011;3627;46.544;14.944;2023-06-22T14:00:16;20.20;;;11.52;;
7171;SDS011;3627;46.544;14.944;2023-06-22T14:02:43;17.75;;;10.75;;
7171;SDS011;3627;46.544;14.944;2023-06-22T14:05:09;16.38;;;11.43;;
7171;SDS011;3627;46.544;14.944;2023-06-22T14:07:37;16.40;;;11.20;;
7171;SDS011;3627;46.544;14.944;2023-06-22T14:10:04;20.23;;;11.05;;
7171;SDS011;3627;46.544;14.944;2023-06-22T14:12:30;17.55;;;11.45;;
7171;SDS011;3627;46.544;14.944;2023-06-22T14:14:57;23.35;;;12.90;;
7171;SDS011;3627;46.544;14.944;2023-06-22T14:17:24;25.63;;;14.77;;
7171;SDS011;3627;46.544;14.944;2023-06-22T14:19:51;15.68;;;10.93;;
7171;SDS011;3627;46.544;14.944;2023-06-22T14:22:18;17.23;;;11.82;;
7171;SDS011;3627;46.544;14.944;2023-06-22T14:24:46;20.80;;;11.43;;
7171;SDS011;3627;46.544;14.944;2023-06-22T14:27:12;15.77;;;10.43;;
7171;SDS011;3627;46.544;14.944;2023-06-22T14:29:39;18.10;;;10.02;;
7171;SDS011;3627;46.544;14.944;2023-06-22T14:32:06;14.85;;;10.70;;
7171;SDS011;3627;46.544;14.944;2023-06-22T14:34:32;19.05;;;10.57;;
7171;SDS011;3627;46.544;14.944;2023-06-22T14:37:00;16.38;;;10.18;;
7171;SDS011;3627;46.544;14.944;2023-06-22T14:39:27;16.08;;;10.70;;
7171;SDS011;3627;46.544;14.944;2023-06-22T14:41:55;16.40;;;9.90;;
7171;SDS011;3627;46.544;14.944;2023-06-22T14:44:21;14.23;;;10.00;;
7171;SDS011;3627;46.544;14.944;2023-06-22T14:46:48;19.35;;;10.27;;
7171;SDS011;3627;46.544;14.944;2023-06-22T14:49:14;15.18;;;9.45;;